Time;durP1;ratioP1;P1;durP2;ratioP2;P2;SDS_P1;SDS_P2;PMS_P1;PMS_P2;Temp;Humidity;BMP_temperature;BMP_pressure;BME280_temperature;BME280_humidity;BME280_pressure;Samples;Min_cycle;Max_cycle;Signal;HPM_P1;HPM_P2
2022/02/19 00:00:10;;;;;;;5.37;1.60;;;9.00;98.70;;;;;;5074489;28;20577;-61
2022/02/19 00:02:38;;;;;;;7.73;1.70;;;9.00;98.50;;;;;;5074437;28;20233;-62
2022/02/19 00:05:05;;;;;;;6.73;2.13;;;9.00;98.50;;;;;;5074522;28;20208;-63
2022/02/19 00:07:32;;;;;;;8.43;1.73;;;9.00;98.50;;;;;;5074495;28;20205;-60
2022/02/19 00:09:59;;;;;;;4.23;1.47;;;9.00;98.70;;;;;;5074102;28;20232;-60
2022/02/19 00:12:26;;;;;;;9.37;1.50;;;9.00;98.40;;;;;;5073853;28;20201;-60
2022/02/19 00:14:53;;;;;;;7.07;1.40;;;9.00;98.50;;;;;;5074241;28;20209;-62
2022/02/19 00:17:20;;;;;;;10.23;2.07;;;9.00;98.30;;;;;;5074389;28;20256;-60
2022/02/19 00:19:49;;;;;;;5.27;1.63;;;8.90;97.80;;;;;;5073880;28;20233;-60
2022/02/19 00:22:16;;;;;;;8.60;2.07;;;8.90;98.40;;;;;;5073432;28;20229;-61
2022/02/19 00:24:43;;;;;;;5.40;1.80;;;8.80;98.00;;;;;;5073642;28;20263;-60
2022/02/19 00:27:09;;;;;;;5.00;1.80;;;8.80;98.00;;;;;;5073340;28;20205;-61
2022/02/19 00:29:36;;;;;;;6.77;1.73;;;8.80;98.00;;;;;;5073579;28;20255;-60
2022/02/19 00:32:03;;;;;;;5.50;1.70;;;8.80;97.80;;;;;;5073213;28;20209;-60
2022/02/19 00:34:30;;;;;;;6.70;1.63;;;8.80;98.00;;;;;;5073499;28;20235;-60
2022/02/19 00:36:58;;;;;;;10.30;1.90;;;8.80;97.60;;;;;;5073327;28;20579;-60
2022/02/19 00:39:24;;;;;;;7.53;1.90;;;8.80;97.80;;;;;;5072907;28;20231;-60
2022/02/19 00:41:51;;;;;;;5.87;1.47;;;8.80;97.60;;;;;;5073187;28;20227;-60
2022/02/19 00:44:18;;;;;;;7.80;1.90;;;8.80;97.70;;;;;;5073150;28;20683;-61
2022/02/19 00:46:45;;;;;;;7.70;1.60;;;8.80;97.60;;;;;;5073150;28;20278;-61
2022/02/19 00:49:11;;;;;;;6.67;1.63;;;8.80;97.30;;;;;;5072986;28;20232;-60
2022/02/19 00:51:38;;;;;;;8.33;1.80;;;8.90;97.40;;;;;;5073004;28;20208;-61
2022/02/19 00:54:06;;;;;;;12.93;2.13;;;8.90;97.30;;;;;;5073065;28;20204;-61
2022/02/19 00:56:33;;;;;;;6.70;2.17;;;8.90;97.30;;;;;;5073386;28;20205;-61
2022/02/19 00:58:59;;;;;;;9.97;2.20;;;8.90;97.00;;;;;;5074173;28;20221;-61
2022/02/19 01:01:26;;;;;;;4.93;1.83;;;8.80;97.00;;;;;;5073261;28;20665;-61
2022/02/19 01:03:53;;;;;;;6.53;1.53;;;8.80;97.10;;;;;;5073344;28;20233;-61
2022/02/19 01:06:20;;;;;;;7.00;1.70;;;8.80;97.10;;;;;;5073147;28;20263;-61
2022/02/19 01:08:47;;;;;;;7.43;1.77;;;8.80;96.80;;;;;;5072096;28;20675;-61
2022/02/19 01:11:15;;;;;;;6.10;1.57;;;8.80;96.60;;;;;;5073131;28;20213;-61
2022/02/19 01:13:42;;;;;;;9.00;2.17;;;8.80;96.40;;;;;;5072806;28;20681;-61
2022/02/19 01:16:09;;;;;;;7.30;2.30;;;8.80;96.30;;;;;;5072569;28;20238;-61
2022/02/19 01:18:35;;;;;;;5.83;1.63;;;8.80;96.30;;;;;;5072720;28;20252;-60
2022/02/19 01:21:02;;;;;;;10.13;2.17;;;8.80;96.30;;;;;;5072633;28;20212;-61
2022/02/19 01:23:29;;;;;;;8.53;2.67;;;8.80;96.30;;;;;;5072447;28;20343;-61
2022/02/19 01:25:56;;;;;;;6.47;1.73;;;8.90;96.20;;;;;;5072684;28;20205;-61
2022/02/19 01:28:24;;;;;;;7.50;2.07;;;8.90;96.20;;;;;;5072500;28;20201;-61
2022/02/19 01:30:51;;;;;;;5.03;1.70;;;8.90;96.20;;;;;;5072648;28;20251;-61
2022/02/19 01:33:17;;;;;;;7.07;1.80;;;8.90;96.20;;;;;;5072378;28;20208;-61
2022/02/19 01:35:44;;;;;;;6.63;1.97;;;8.90;95.80;;;;;;5072284;28;20213;-61
2022/02/19 01:38:13;;;;;;;4.90;1.53;;;8.90;95.90;;;;;;5072543;28;20209;-61
2022/02/19 01:40:41;;;;;;;5.47;1.50;;;9.00;95.90;;;;;;5072307;28;20672;-61
2022/02/19 01:43:10;;;;;;;8.13;1.80;;;8.90;95.80;;;;;;5072084;28;20224;-61
2022/02/19 01:45:38;;;;;;;6.27;1.70;;;8.90;95.30;;;;;;5072711;28;20232;-61
2022/02/19 01:48:05;;;;;;;7.07;1.90;;;8.90;95.20;;;;;;5072446;28;20205;-61
2022/02/19 01:50:32;;;;;;;4.97;1.27;;;8.80;95.10;;;;;;5072502;28;20625;-60
2022/02/19 01:53:00;;;;;;;4.13;1.40;;;8.80;94.80;;;;;;5072153;28;20212;-61
2022/02/19 01:55:28;;;;;;;4.60;1.40;;;8.80;94.30;;;;;;5072267;28;20232;-61
2022/02/19 01:57:55;;;;;;;4.40;1.33;;;8.70;93.80;;;;;;5072211;28;20644;-61
2022/02/19 02:00:22;;;;;;;5.80;1.57;;;8.70;94.20;;;;;;5071964;28;20716;-61
2022/02/19 02:02:50;;;;;;;6.13;1.20;;;8.70;94.00;;;;;;5071797;28;20580;-60
2022/02/19 02:05:17;;;;;;;6.97;2.30;;;8.70;93.70;;;;;;5072409;28;20237;-60
2022/02/19 02:07:43;;;;;;;5.60;1.63;;;8.70;93.80;;;;;;5072326;28;20281;-61
2022/02/19 02:10:10;;;;;;;6.17;1.53;;;8.70;93.60;;;;;;5071896;28;20236;-61
2022/02/19 02:12:37;;;;;;;6.57;1.50;;;8.70;93.10;;;;;;5071672;28;20254;-61
2022/02/19 02:15:04;;;;;;;6.47;1.20;;;8.60;92.90;;;;;;5071859;28;20669;-61
2022/02/19 02:17:32;;;;;;;4.37;1.10;;;8.70;93.00;;;;;;5071823;28;20296;-60
2022/02/19 02:20:00;;;;;;;7.10;1.57;;;8.70;93.30;;;;;;5072411;28;20576;-61
2022/02/19 02:22:28;;;;;;;4.33;1.67;;;8.70;93.40;;;;;;5075914;28;20204;-61
2022/02/19 02:24:55;;;;;;;4.63;1.43;;;8.70;93.40;;;;;;5076208;28;20205;-61
2022/02/19 02:27:22;;;;;;;4.90;1.33;;;8.60;92.90;;;;;;5075901;28;20238;-61
2022/02/19 02:29:49;;;;;;;6.23;1.67;;;8.60;93.30;;;;;;5075714;28;20286;-61
2022/02/19 02:32:16;;;;;;;4.93;1.70;;;8.60;93.60;;;;;;5076088;28;20265;-61
2022/02/19 02:34:50;;;;;;;6.47;1.27;;;8.50;93.80;;;;;;5075661;28;20664;-61
2022/02/19 02:37:17;;;;;;;8.60;1.63;;;8.50;93.90;;;;;;5075963;28;20219;-61
2022/02/19 02:39:46;;;;;;;5.53;1.43;;;8.40;94.00;;;;;;5075641;28;20607;-60
2022/02/19 02:42:14;;;;;;;5.63;1.63;;;8.40;94.10;;;;;;5075497;28;20209;-60
2022/02/19 02:44:41;;;;;;;10.27;1.70;;;8.40;94.40;;;;;;5075525;28;20731;-61
2022/02/19 02:47:08;;;;;;;4.80;1.50;;;8.30;94.80;;;;;;5075730;28;20213;-61
2022/02/19 02:49:35;;;;;;;6.73;1.47;;;8.20;95.00;;;;;;5075475;28;20225;-61
2022/02/19 02:52:02;;;;;;;8.63;2.00;;;8.10;94.70;;;;;;5075378;28;20223;-61
2022/02/19 02:54:29;;;;;;;8.57;1.60;;;8.10;94.90;;;;;;5075301;28;20208;-61
2022/02/19 02:56:57;;;;;;;8.27;1.70;;;8.10;95.00;;;;;;5075317;28;20209;-61
2022/02/19 02:59:24;;;;;;;7.13;1.77;;;8.10;95.00;;;;;;5075401;28;20247;-61
2022/02/19 03:01:50;;;;;;;9.40;2.40;;;8.00;95.20;;;;;;5075375;28;20208;-61
2022/02/19 03:04:17;;;;;;;6.20;1.77;;;8.00;95.40;;;;;;5075401;28;20229;-61
2022/02/19 03:06:44;;;;;;;4.50;1.63;;;8.00;95.40;;;;;;5075309;28;20207;-60
2022/02/19 03:09:11;;;;;;;9.07;2.10;;;7.90;95.40;;;;;;5097536;22;20225;-64
2022/02/19 03:11:38;;;;;;;6.57;1.60;;;7.80;95.70;;;;;;5083899;28;20197;-64
2022/02/19 03:14:07;;;;;;;8.50;2.00;;;7.80;95.40;;;;;;5094974;28;20232;-64
2022/02/19 03:16:33;;;;;;;5.97;1.80;;;7.70;95.40;;;;;;5095206;28;20215;-64
2022/02/19 03:19:01;;;;;;;8.90;2.10;;;7.60;95.60;;;;;;5094856;28;20783;-64
2022/02/19 03:21:27;;;;;;;5.90;1.73;;;7.60;95.20;;;;;;5095040;28;20299;-64
2022/02/19 03:23:54;;;;;;;3.83;1.43;;;7.60;95.20;;;;;;5094637;28;20251;-64
2022/02/19 03:26:21;;;;;;;4.87;1.70;;;7.50;94.90;;;;;;5094734;28;20212;-64
2022/02/19 03:28:49;;;;;;;4.27;1.40;;;7.50;94.90;;;;;;5094957;28;20204;-64
2022/02/19 03:31:17;;;;;;;7.57;1.93;;;7.50;95.20;;;;;;5094479;28;20211;-62
2022/02/19 03:33:43;;;;;;;5.13;1.50;;;7.40;95.30;;;;;;5094690;28;20203;-62
2022/02/19 03:36:11;;;;;;;7.13;1.50;;;7.40;95.30;;;;;;5094719;28;20356;-62
2022/02/19 03:38:37;;;;;;;9.50;1.70;;;7.40;95.00;;;;;;5094688;28;20302;-63
2022/02/19 03:41:04;;;;;;;7.20;1.87;;;7.40;95.10;;;;;;5094693;28;20212;-63
2022/02/19 03:43:31;;;;;;;9.60;1.47;;;7.30;94.60;;;;;;5094325;28;20224;-65
2022/02/19 03:45:57;;;;;;;6.47;1.57;;;7.40;94.80;;;;;;5094601;28;20200;-65
2022/02/19 03:48:25;;;;;;;6.97;1.70;;;7.30;94.80;;;;;;5094532;28;20216;-65
2022/02/19 03:50:52;;;;;;;5.37;1.57;;;7.30;94.70;;;;;;5094355;28;20286;-62
2022/02/19 03:53:19;;;;;;;6.43;1.50;;;7.20;94.90;;;;;;5094133;28;20228;-62
2022/02/19 03:55:45;;;;;;;6.47;1.70;;;7.20;95.00;;;;;;5094677;28;20292;-64
2022/02/19 03:58:12;;;;;;;3.93;1.40;;;7.20;95.00;;;;;;5094688;28;20227;-62
2022/02/19 04:00:39;;;;;;;6.97;1.90;;;7.10;95.20;;;;;;5094336;28;20306;-65
2022/02/19 04:03:06;;;;;;;7.37;1.50;;;7.10;95.40;;;;;;5094315;28;20215;-64
2022/02/19 04:05:34;;;;;;;6.53;1.80;;;7.10;95.70;;;;;;5094260;28;20200;-64
2022/02/19 04:08:00;;;;;;;8.47;1.63;;;7.00;95.90;;;;;;5094044;28;20215;-64
2022/02/19 04:10:27;;;;;;;4.37;1.37;;;7.00;96.00;;;;;;5093933;28;20227;-64
2022/02/19 04:12:54;;;;;;;6.70;1.60;;;7.00;96.10;;;;;;5094055;28;20209;-64
2022/02/19 04:15:21;;;;;;;6.27;1.90;;;7.00;96.30;;;;;;5093928;28;20201;-63
2022/02/19 04:17:47;;;;;;;6.83;1.63;;;7.00;96.60;;;;;;5093843;28;20200;-64
2022/02/19 04:20:15;;;;;;;6.87;1.80;;;7.00;96.60;;;;;;5094140;28;20305;-64
2022/02/19 04:22:43;;;;;;;6.60;1.80;;;6.90;96.10;;;;;;5093425;28;20664;-64
2022/02/19 04:25:11;;;;;;;6.20;1.60;;;6.80;96.00;;;;;;5093544;28;20224;-64
2022/02/19 04:27:38;;;;;;;8.23;1.73;;;6.70;95.90;;;;;;5093637;28;20262;-65
2022/02/19 04:30:05;;;;;;;5.30;1.87;;;6.60;95.80;;;;;;5093609;28;20281;-63
2022/02/19 04:32:32;;;;;;;5.97;1.30;;;6.70;95.80;;;;;;5093418;28;20200;-63
2022/02/19 04:34:59;;;;;;;8.20;1.60;;;6.60;95.80;;;;;;5093531;28;20204;-64
2022/02/19 04:37:25;;;;;;;7.37;2.00;;;6.60;95.90;;;;;;5093660;28;20208;-64
2022/02/19 04:39:55;;;;;;;7.77;1.53;;;6.60;96.00;;;;;;5093381;28;20723;-63
2022/02/19 04:42:21;;;;;;;3.47;1.27;;;6.60;96.00;;;;;;5093048;28;20253;-64
2022/02/19 04:44:48;;;;;;;5.93;1.50;;;6.60;96.00;;;;;;5092833;28;20269;-63
2022/02/19 04:47:15;;;;;;;3.27;1.37;;;6.70;96.00;;;;;;5093230;28;20230;-63
2022/02/19 04:49:41;;;;;;;6.77;1.90;;;6.60;95.70;;;;;;5093011;28;20756;-65
2022/02/19 04:52:09;;;;;;;6.83;1.73;;;6.70;95.80;;;;;;5093077;28;20585;-65
2022/02/19 04:54:36;;;;;;;8.70;1.50;;;6.70;95.80;;;;;;5093193;28;20288;-63
2022/02/19 04:57:04;;;;;;;5.00;1.50;;;6.70;95.80;;;;;;5093064;28;20209;-64
2022/02/19 04:59:31;;;;;;;7.27;2.07;;;6.70;96.00;;;;;;5093138;28;20235;-63
2022/02/19 05:01:58;;;;;;;5.60;1.47;;;6.60;96.20;;;;;;5093000;28;20211;-63
2022/02/19 05:04:24;;;;;;;6.77;1.40;;;6.60;96.30;;;;;;5092816;28;20231;-64
2022/02/19 05:06:51;;;;;;;9.33;2.03;;;6.60;96.30;;;;;;5093046;28;20204;-65
2022/02/19 05:09:18;;;;;;;7.37;1.73;;;6.50;96.40;;;;;;5092843;28;20286;-64
2022/02/19 05:11:45;;;;;;;10.57;1.50;;;6.50;96.60;;;;;;5092948;28;20235;-65
2022/02/19 05:14:13;;;;;;;8.30;1.90;;;6.50;96.70;;;;;;5092563;28;20289;-63
2022/02/19 05:16:39;;;;;;;4.83;1.53;;;6.40;96.80;;;;;;5092684;28;20204;-63
2022/02/19 05:19:06;;;;;;;8.80;2.13;;;6.40;96.90;;;;;;5092794;28;20277;-63
2022/02/19 05:21:33;;;;;;;9.57;1.73;;;6.50;96.90;;;;;;5092906;28;20201;-63
2022/02/19 05:23:59;;;;;;;7.37;2.30;;;6.50;97.00;;;;;;5092345;28;20224;-64
2022/02/19 05:26:26;;;;;;;5.87;1.80;;;6.40;97.00;;;;;;5092557;28;20690;-63
2022/02/19 05:28:53;;;;;;;8.27;1.93;;;6.40;97.00;;;;;;5092739;28;20227;-63
2022/02/19 05:31:21;;;;;;;8.17;1.80;;;6.40;97.00;;;;;;5092475;28;20212;-63
2022/02/19 05:33:48;;;;;;;7.43;1.80;;;6.40;97.10;;;;;;5092523;28;20200;-62
2022/02/19 05:36:14;;;;;;;9.63;2.00;;;6.50;97.00;;;;;;5092801;28;20683;-63
2022/02/19 05:38:41;;;;;;;8.93;2.40;;;6.50;97.00;;;;;;5092679;28;20200;-63
2022/02/19 05:41:08;;;;;;;7.83;2.20;;;6.50;97.20;;;;;;5092789;28;20631;-62
2022/02/19 05:43:34;;;;;;;7.53;1.97;;;6.50;97.40;;;;;;5092413;28;20220;-63
2022/02/19 05:46:01;;;;;;;10.37;2.07;;;6.50;97.40;;;;;;5093045;28;20214;-63
2022/02/19 05:48:29;;;;;;;7.27;2.20;;;6.50;97.60;;;;;;5092705;28;20208;-64
2022/02/19 05:50:56;;;;;;;9.37;2.03;;;6.50;97.90;;;;;;5092605;28;20228;-63
2022/02/19 05:53:22;;;;;;;7.83;2.03;;;6.40;98.00;;;;;;5092177;28;20667;-63
2022/02/19 05:55:49;;;;;;;9.47;2.00;;;6.40;98.00;;;;;;5092342;28;20250;-63
2022/02/19 05:58:16;;;;;;;8.80;2.07;;;6.40;98.60;;;;;;5092188;28;20249;-64
2022/02/19 06:00:43;;;;;;;8.40;1.70;;;6.40;98.50;;;;;;5092378;28;20282;-63
2022/02/19 06:03:09;;;;;;;8.33;2.10;;;6.40;98.40;;;;;;5092501;28;20257;-64
2022/02/19 06:05:37;;;;;;;7.23;2.17;;;6.40;98.50;;;;;;5092215;28;20639;-63
2022/02/19 06:08:05;;;;;;;10.23;2.23;;;6.40;98.50;;;;;;5092446;28;20208;-63
2022/02/19 06:10:31;;;;;;;10.00;2.80;;;6.40;98.40;;;;;;5092509;28;20608;-63
2022/02/19 06:12:58;;;;;;;11.87;2.30;;;6.50;98.30;;;;;;5092239;28;20212;-63
2022/02/19 06:15:25;;;;;;;7.47;2.40;;;6.50;98.30;;;;;;5092907;28;20204;-63
2022/02/19 06:17:51;;;;;;;9.00;1.90;;;6.50;98.30;;;;;;5094296;28;20204;-63
2022/02/19 06:20:18;;;;;;;8.37;1.93;;;6.60;98.30;;;;;;5093990;28;20224;-63
2022/02/19 06:22:46;;;;;;;10.70;2.20;;;6.60;98.20;;;;;;5091861;28;20212;-62
2022/02/19 06:25:13;;;;;;;11.37;2.63;;;6.70;98.30;;;;;;5092028;28;20220;-62
2022/02/19 06:27:40;;;;;;;8.20;2.47;;;6.60;98.10;;;;;;5092211;28;20204;-63
2022/02/19 06:30:09;;;;;;;8.70;2.57;;;6.50;98.30;;;;;;5092157;28;20231;-63
2022/02/19 06:32:35;;;;;;;10.03;2.10;;;6.60;98.30;;;;;;5091983;28;20249;-64
2022/02/19 06:35:02;;;;;;;10.53;2.47;;;6.60;98.40;;;;;;5091994;28;20295;-63
2022/02/19 06:37:29;;;;;;;8.20;2.17;;;6.70;98.30;;;;;;5094779;28;20209;-63
2022/02/19 06:39:57;;;;;;;10.63;4.67;;;6.70;98.20;;;;;;5095299;28;20274;-63
2022/02/19 06:42:24;;;;;;;8.53;2.23;;;6.70;98.10;;;;;;5095407;28;20236;-63
2022/02/19 06:44:50;;;;;;;9.53;3.00;;;6.60;98.00;;;;;;5095022;28;20224;-63
2022/02/19 06:47:17;;;;;;;6.27;1.93;;;6.60;98.00;;;;;;5095345;28;20200;-63
2022/02/19 06:49:44;;;;;;;7.80;1.80;;;6.60;98.10;;;;;;5095562;28;20231;-63
2022/02/19 06:52:10;;;;;;;7.23;2.03;;;6.60;98.10;;;;;;5095637;28;20216;-62
2022/02/19 06:54:37;;;;;;;5.07;1.77;;;6.70;98.00;;;;;;5094481;28;20200;-62
2022/02/19 06:57:10;;;;;;;9.13;2.10;;;6.70;97.90;;;;;;5095361;28;20205;-64
2022/02/19 06:59:36;;;;;;;11.00;2.83;;;6.80;97.90;;;;;;5093885;28;20699;-63
2022/02/19 07:02:03;;;;;;;6.83;1.93;;;6.80;98.00;;;;;;5093227;28;20698;-63
2022/02/19 07:04:30;;;;;;;11.70;2.10;;;6.80;98.00;;;;;;5094559;28;20216;-63
2022/02/19 07:06:57;;;;;;;7.50;2.10;;;6.90;98.10;;;;;;5096892;28;20262;-63
2022/02/19 07:09:23;;;;;;;6.90;1.83;;;7.10;98.00;;;;;;5095880;28;20236;-63
2022/02/19 07:11:50;;;;;;;8.13;2.07;;;7.40;97.80;;;;;;5095445;28;20668;-63
2022/02/19 07:14:18;;;;;;;6.67;1.70;;;7.80;97.10;;;;;;5095015;28;20698;-63
2022/02/19 07:16:45;;;;;;;8.80;2.23;;;8.20;96.60;;;;;;5095121;28;20208;-63
2022/02/19 07:19:11;;;;;;;5.40;1.67;;;8.40;96.30;;;;;;5095046;28;20289;-63
2022/02/19 07:21:38;;;;;;;7.77;1.90;;;8.50;96.20;;;;;;5095025;28;20208;-63
2022/02/19 07:24:06;;;;;;;9.80;2.00;;;8.30;96.30;;;;;;5094886;28;20214;-63
2022/02/19 07:26:33;;;;;;;7.00;1.87;;;8.30;96.30;;;;;;5095032;28;20291;-63
2022/02/19 07:29:01;;;;;;;8.10;2.10;;;8.50;96.20;;;;;;5094838;28;20232;-63
2022/02/19 07:31:29;;;;;;;9.57;2.13;;;8.50;96.10;;;;;;5094830;28;20253;-63
2022/02/19 07:33:56;;;;;;;9.17;1.97;;;8.40;96.10;;;;;;5094517;28;20705;-63
2022/02/19 07:36:22;;;;;;;10.77;1.90;;;8.30;96.30;;;;;;5094809;28;20607;-63
2022/02/19 07:38:49;;;;;;;9.43;2.17;;;8.20;96.50;;;;;;5094866;28;20200;-63
2022/02/19 07:41:17;;;;;;;8.60;2.30;;;8.10;96.60;;;;;;5094796;28;20261;-63
2022/02/19 07:43:44;;;;;;;11.00;1.90;;;8.10;96.80;;;;;;5094474;28;20299;-63
2022/02/19 07:46:11;;;;;;;5.10;1.70;;;8.10;96.80;;;;;;5094688;28;20506;-63
2022/02/19 07:48:39;;;;;;;9.83;2.13;;;8.10;96.90;;;;;;5094456;28;20300;-63
2022/02/19 07:59:18;;;;;;;9.07;2.20;;;8.20;96.90;;;;;;5094348;28;20691;-64
2022/02/19 08:01:45;;;;;;;6.40;1.73;;;8.30;96.60;;;;;;5094128;28;20687;-64
2022/02/19 08:04:14;;;;;;;10.20;2.20;;;8.30;96.70;;;;;;5094193;28;20218;-64
2022/02/19 08:06:41;;;;;;;7.40;1.80;;;8.50;96.70;;;;;;5094148;28;20204;-64
2022/02/19 08:09:07;;;;;;;4.73;1.53;;;8.60;96.60;;;;;;5094100;28;20236;-65
2022/02/19 08:11:34;;;;;;;7.03;2.00;;;8.50;96.70;;;;;;5094056;28;20265;-65
2022/02/19 08:14:01;;;;;;;13.87;2.47;;;8.60;96.70;;;;;;5093872;28;20235;-65
2022/02/19 08:16:27;;;;;;;5.47;1.37;;;8.50;96.70;;;;;;5094098;28;20212;-65
2022/02/19 08:18:54;;;;;;;10.00;1.90;;;8.60;96.70;;;;;;5092907;28;20281;-65
2022/02/19 08:21:23;;;;;;;10.50;2.47;;;8.40;96.70;;;;;;5093868;28;20212;-65
2022/02/19 08:23:49;;;;;;;9.83;2.00;;;8.30;96.90;;;;;;5093763;28;20207;-66
2022/02/19 08:26:22;;;;;;;7.20;2.07;;;8.10;96.90;;;;;;5093645;28;20235;-64
2022/02/19 08:28:48;;;;;;;8.50;1.70;;;8.10;97.30;;;;;;5093844;28;20204;-64
2022/02/19 08:31:15;;;;;;;6.80;1.80;;;7.90;97.40;;;;;;5093952;28;20204;-64
2022/02/19 08:33:42;;;;;;;9.13;1.80;;;7.80;97.30;;;;;;5093833;28;20205;-63
2022/02/19 08:36:08;;;;;;;12.20;2.47;;;7.70;97.50;;;;;;5093786;28;20204;-63
2022/02/19 08:38:36;;;;;;;9.50;1.73;;;7.60;98.00;;;;;;5093740;28;20230;-65
2022/02/19 08:41:04;;;;;;;7.43;2.00;;;7.70;98.00;;;;;;5093770;28;20204;-63
2022/02/19 08:43:30;;;;;;;3.83;1.37;;;7.60;97.70;;;;;;5093581;28;20208;-63
2022/02/19 08:45:57;;;;;;;11.43;2.20;;;7.60;97.90;;;;;;5093959;28;20227;-63
2022/02/19 08:48:24;;;;;;;8.23;2.60;;;7.50;98.00;;;;;;5093831;28;20204;-64
2022/02/19 08:50:51;;;;;;;8.30;2.30;;;7.60;98.10;;;;;;5093603;28;20224;-64
2022/02/19 08:53:21;;;;;;;10.00;2.10;;;7.60;98.10;;;;;;5093455;28;20249;-63
2022/02/19 08:55:50;;;;;;;10.43;2.07;;;7.70;97.90;;;;;;5094388;28;20200;-62
2022/02/19 08:58:16;;;;;;;9.17;1.67;;;7.70;97.70;;;;;;5093947;28;20235;-63
2022/02/19 09:00:43;;;;;;;8.80;2.10;;;7.70;97.70;;;;;;5093304;28;20228;-63
2022/02/19 09:03:10;;;;;;;9.90;2.03;;;7.70;97.80;;;;;;5093118;28;20257;-64
2022/02/19 09:05:37;;;;;;;6.37;1.53;;;7.80;97.90;;;;;;5092964;28;20294;-63
2022/02/19 09:08:04;;;;;;;9.40;2.03;;;7.80;97.80;;;;;;5092856;28;20668;-64
2022/02/19 09:10:31;;;;;;;6.97;1.80;;;7.90;97.90;;;;;;5101530;22;20749;-60
2022/02/19 09:12:59;;;;;;;10.20;2.97;;;7.90;97.60;;;;;;5076342;28;20212;-59
2022/02/19 09:15:26;;;;;;;7.40;2.20;;;8.00;97.70;;;;;;5093119;28;20197;-58
2022/02/19 09:17:53;;;;;;;7.80;1.83;;;8.10;97.00;;;;;;5093086;28;20227;-60
2022/02/19 09:20:21;;;;;;;6.77;1.87;;;8.20;97.00;;;;;;5092765;28;20228;-59
2022/02/19 09:22:49;;;;;;;6.50;1.67;;;8.20;97.20;;;;;;5092656;28;20216;-59
2022/02/19 09:25:16;;;;;;;10.57;2.07;;;8.30;97.10;;;;;;5092801;28;20220;-58
2022/02/19 09:27:44;;;;;;;8.10;1.57;;;8.40;96.60;;;;;;5093336;28;20200;-59
2022/02/19 09:30:13;;;;;;;6.33;1.80;;;8.40;96.90;;;;;;5092433;28;20228;-59
2022/02/19 09:32:40;;;;;;;8.83;2.10;;;8.50;96.60;;;;;;5092376;28;20219;-59
2022/02/19 09:35:08;;;;;;;7.53;2.00;;;8.50;96.00;;;;;;5092495;28;20258;-60
2022/02/19 09:37:34;;;;;;;7.23;2.00;;;8.50;95.40;;;;;;5092932;28;20209;-60
2022/02/19 09:40:01;;;;;;;5.70;1.47;;;8.50;95.10;;;;;;5092547;28;20235;-58
2022/02/19 09:42:28;;;;;;;7.60;1.73;;;8.60;94.80;;;;;;5092609;28;20208;-58
2022/02/19 09:44:56;;;;;;;7.03;1.57;;;8.50;95.10;;;;;;5092398;28;20253;-59
2022/02/19 09:47:27;;;;;;;6.77;1.87;;;8.50;95.00;;;;;;5092412;28;20208;-58
2022/02/19 09:49:55;;;;;;;5.47;1.67;;;8.60;94.70;;;;;;5092461;28;20263;-58
2022/02/19 09:52:23;;;;;;;5.43;1.80;;;8.60;94.70;;;;;;5092777;28;20215;-58
2022/02/19 09:54:50;;;;;;;7.90;1.90;;;8.60;94.10;;;;;;5092193;28;20554;-58
2022/02/19 09:57:16;;;;;;;7.63;1.40;;;8.70;94.10;;;;;;5092288;28;20208;-58
2022/02/19 09:59:43;;;;;;;5.17;1.67;;;8.70;94.20;;;;;;5092315;28;20227;-58
2022/02/19 10:02:10;;;;;;;6.47;1.70;;;8.70;94.30;;;;;;5092335;28;20212;-59
2022/02/19 10:04:43;;;;;;;7.13;1.63;;;8.80;94.40;;;;;;5092263;28;20249;-59
2022/02/19 10:07:14;;;;;;;5.67;1.40;;;8.80;94.10;;;;;;5092228;28;20253;-58
2022/02/19 10:09:41;;;;;;;9.80;1.73;;;8.80;93.70;;;;;;5092394;28;20236;-59
2022/02/19 10:12:10;;;;;;;6.27;1.90;;;8.80;94.10;;;;;;5092432;28;20566;-58
2022/02/19 10:14:39;;;;;;;6.33;1.40;;;8.90;94.10;;;;;;5091935;28;20216;-58
2022/02/19 10:17:11;;;;;;;5.33;1.70;;;9.20;94.00;;;;;;5092378;28;20204;-59
2022/02/19 10:19:57;;;;;;;10.13;1.90;;;9.30;93.80;;;;;;5092348;28;20243;-58
2022/02/19 10:22:26;;;;;;;4.13;1.23;;;9.40;94.00;;;;;;5092313;28;20215;-58
2022/02/19 10:24:55;;;;;;;4.17;1.37;;;9.60;93.60;;;;;;5092043;28;20581;-58
2022/02/19 10:27:21;;;;;;;5.07;1.90;;;9.70;93.20;;;;;;5092282;28;20223;-59
2022/02/19 10:29:58;;;;;;;6.27;1.63;;;9.90;93.10;;;;;;5091696;28;20774;-58
2022/02/19 10:32:25;;;;;;;6.33;1.60;;;10.00;92.20;;;;;;5092399;28;20204;-59
2022/02/19 10:34:59;;;;;;;7.53;1.60;;;10.20;92.20;;;;;;5092080;28;20247;-59
2022/02/19 10:37:28;;;;;;;6.67;1.67;;;10.30;92.10;;;;;;5092534;28;20690;-59
2022/02/19 10:39:57;;;;;;;4.83;1.23;;;10.20;91.50;;;;;;5092462;28;20224;-59
2022/02/19 10:42:32;;;;;;;4.13;1.20;;;10.20;91.30;;;;;;5094860;28;20671;-59
2022/02/19 10:45:05;;;;;;;8.80;1.57;;;10.40;90.90;;;;;;5096090;28;20223;-59
2022/02/19 10:47:32;;;;;;;3.77;1.53;;;10.30;90.40;;;;;;5096431;28;20262;-59
2022/02/19 10:50:10;;;;;;;6.63;1.90;;;10.30;90.80;;;;;;5091702;28;20329;-59
2022/02/19 10:52:38;;;;;;;6.30;1.60;;;10.20;90.90;;;;;;5055001;28;20213;-61
2022/02/19 10:55:07;;;;;;;8.13;1.53;;;10.30;90.90;;;;;;5075320;28;20201;-59
2022/02/19 10:57:38;;;;;;;6.93;1.67;;;10.30;90.70;;;;;;5074914;28;20590;-60
2022/02/19 11:00:12;;;;;;;8.80;1.90;;;10.40;90.60;;;;;;5075205;28;20258;-62
2022/02/19 11:02:40;;;;;;;5.43;1.50;;;10.30;89.80;;;;;;5088884;28;20469;-60
2022/02/19 11:05:09;;;;;;;4.43;1.50;;;10.40;90.00;;;;;;5095410;28;20235;-59
2022/02/19 11:07:37;;;;;;;4.67;1.33;;;10.50;89.60;;;;;;5095617;28;20211;-59
2022/02/19 11:10:05;;;;;;;7.50;1.50;;;10.50;87.70;;;;;;5085258;28;20233;-59
2022/02/19 11:12:32;;;;;;;5.87;1.37;;;10.50;87.70;;;;;;5074571;28;20584;-60
2022/02/19 11:14:59;;;;;;;4.83;1.80;;;10.60;86.20;;;;;;5074462;28;20208;-60
2022/02/19 11:17:28;;;;;;;7.73;1.83;;;10.60;87.30;;;;;;5074582;28;20581;-58
2022/02/19 11:19:58;;;;;;;3.97;1.27;;;10.60;87.80;;;;;;5075051;28;20229;-58
2022/02/19 11:22:30;;;;;;;4.43;1.40;;;10.50;87.00;;;;;;5074807;28;20259;-60
2022/02/19 11:24:57;;;;;;;5.23;1.87;;;10.50;87.70;;;;;;5074409;28;20201;-61
2022/02/19 11:27:26;;;;;;;7.13;1.80;;;10.50;87.60;;;;;;5074324;28;20731;-59
2022/02/19 11:29:55;;;;;;;3.97;1.40;;;10.50;87.00;;;;;;5074532;28;20248;-61
2022/02/19 11:32:23;;;;;;;6.70;1.20;;;10.60;87.80;;;;;;5074624;28;20212;-60
2022/02/19 11:34:50;;;;;;;3.37;1.20;;;10.70;87.90;;;;;;5074261;28;20209;-60
2022/02/19 11:37:18;;;;;;;5.73;1.30;;;10.70;85.30;;;;;;5074362;28;20212;-61
2022/02/19 11:40:01;;;;;;;3.03;1.40;;;10.80;85.40;;;;;;5074349;28;20229;-62
2022/02/19 11:42:36;;;;;;;5.10;1.20;;;10.90;84.50;;;;;;5074846;28;20233;-59
2022/02/19 11:45:17;;;;;;;3.27;1.20;;;10.80;83.40;;;;;;5074398;28;20204;-59
2022/02/19 11:47:45;;;;;;;5.03;1.37;;;10.80;83.70;;;;;;5074730;28;20247;-59
2022/02/19 11:50:20;;;;;;;5.83;1.00;;;10.80;85.30;;;;;;5074347;28;20229;-59
2022/02/19 11:53:23;;;;;;;4.27;1.77;;;10.90;84.00;;;;;;5074223;28;20211;-60
2022/02/19 11:55:51;;;;;;;6.10;1.37;;;10.90;84.20;;;;;;5074486;28;20205;-59
2022/02/19 11:58:22;;;;;;;6.63;1.57;;;10.70;84.50;;;;;;5074210;28;20209;-59
2022/02/19 12:00:50;;;;;;;3.63;1.40;;;10.60;85.00;;;;;;5073989;28;20232;-59
2022/02/19 12:03:23;;;;;;;5.87;2.10;;;10.60;84.30;;;;;;5071639;28;20209;-60
2022/02/19 12:06:18;;;;;;;3.70;1.30;;;10.60;84.80;;;;;;5073667;28;20719;-60
2022/02/19 12:09:13;;;;;;;7.83;1.40;;;10.70;85.30;;;;;;5073931;28;20239;-60
2022/02/19 12:12:05;;;;;;;4.70;1.27;;;10.90;83.80;;;;;;5037662;28;20205;-56
2022/02/19 12:14:50;;;;;;;4.33;1.53;;;11.10;82.90;;;;;;5073470;28;20254;-56
2022/02/19 12:17:18;;;;;;;4.97;1.10;;;11.20;83.30;;;;;;5073652;28;20239;-56
2022/02/19 12:20:02;;;;;;;6.27;1.83;;;11.30;83.80;;;;;;5073520;28;20231;-60
2022/02/19 12:22:35;;;;;;;3.77;1.27;;;11.40;83.20;;;;;;5073440;28;20602;-60
2022/02/19 12:25:05;;;;;;;8.90;1.90;;;11.60;84.40;;;;;;5073749;28;20243;-59
2022/02/19 12:27:34;;;;;;;4.10;1.50;;;11.60;85.20;;;;;;5073473;28;20592;-58
2022/02/19 12:30:22;;;;;;;7.23;1.60;;;11.50;85.50;;;;;;5073546;28;20233;-61
2022/02/19 12:32:50;;;;;;;5.83;2.03;;;11.40;85.00;;;;;;5073479;28;20200;-62
2022/02/19 12:35:17;;;;;;;6.97;1.73;;;11.40;86.20;;;;;;5073717;28;20266;-60
2022/02/19 12:37:44;;;;;;;4.30;1.50;;;11.30;85.10;;;;;;5073274;28;20197;-60
2022/02/19 12:40:17;;;;;;;3.57;1.53;;;11.10;85.90;;;;;;5073663;28;20229;-60
2022/02/19 12:42:50;;;;;;;3.70;1.13;;;11.10;86.30;;;;;;5073375;28;20299;-59
2022/02/19 12:45:19;;;;;;;7.07;1.80;;;11.30;86.10;;;;;;5072363;28;20262;-58
2022/02/19 12:47:47;;;;;;;5.73;1.17;;;11.40;85.60;;;;;;5066121;28;20703;-60
2022/02/19 12:50:16;;;;;;;3.97;1.37;;;11.20;85.50;;;;;;5073148;28;20315;-65
2022/02/19 12:52:43;;;;;;;6.60;2.90;;;11.00;85.60;;;;;;5072610;28;20211;-60
2022/02/19 12:55:16;;;;;;;5.07;1.93;;;10.80;86.50;;;;;;5072252;28;20213;-60
2022/02/19 12:57:45;;;;;;;8.43;2.50;;;10.60;86.60;;;;;;5072599;28;20205;-66
2022/02/19 13:00:14;;;;;;;6.87;1.67;;;10.60;87.30;;;;;;5072565;28;20229;-63
2022/02/19 13:02:44;;;;;;;6.13;1.13;;;10.70;86.90;;;;;;5072718;28;20212;-63
2022/02/19 13:05:12;;;;;;;5.53;1.97;;;10.90;86.70;;;;;;5071911;28;20522;-61